sensor_id;sensor_type;location;lat;lon;timestamp;P1;durP1;ratioP1;P2;durP2;ratioP2
19951;SDS011;10137;49.406;19.484;2023-05-10T00:02:05;7.17;;;4.07;;
19951;SDS011;10137;49.406;19.484;2023-05-10T00:04:33;6.93;;;3.97;;
19951;SDS011;10137;49.406;19.484;2023-05-10T00:07:01;5.37;;;4.00;;
19951;SDS011;10137;49.406;19.484;2023-05-10T00:09:30;7.53;;;4.60;;
19951;SDS011;10137;49.406;19.484;2023-05-10T00:11:57;6.83;;;4.10;;
19951;SDS011;10137;49.406;19.484;2023-05-10T00:14:26;6.73;;;4.17;;
19951;SDS011;10137;49.406;19.484;2023-05-10T00:16:54;6.47;;;3.70;;
19951;SDS011;10137;49.406;19.484;2023-05-10T00:19:26;9.67;;;4.33;;
19951;SDS011;10137;49.406;19.484;2023-05-10T00:21:54;8.00;;;4.20;;
19951;SDS011;10137;49.406;19.484;2023-05-10T00:24:22;12.83;;;4.43;;
19951;SDS011;10137;49.406;19.484;2023-05-10T00:26:49;9.27;;;4.90;;
19951;SDS011;10137;49.406;19.484;2023-05-10T00:29:17;7.00;;;4.20;;
19951;SDS011;10137;49.406;19.484;2023-05-10T00:31:46;8.23;;;4.27;;
19951;SDS011;10137;49.406;19.484;2023-05-10T00:34:16;7.27;;;4.40;;
19951;SDS011;10137;49.406;19.484;2023-05-10T00:36:45;7.70;;;4.73;;
19951;SDS011;10137;49.406;19.484;2023-05-10T00:39:16;11.03;;;4.67;;
19951;SDS011;10137;49.406;19.484;2023-05-10T00:41:43;7.90;;;4.53;;
19951;SDS011;10137;49.406;19.484;2023-05-10T00:44:12;8.37;;;4.50;;
19951;SDS011;10137;49.406;19.484;2023-05-10T00:46:40;8.00;;;4.40;;
19951;SDS011;10137;49.406;19.484;2023-05-10T00:49:09;8.10;;;4.40;;
19951;SDS011;10137;49.406;19.484;2023-05-10T00:51:37;7.73;;;3.63;;
19951;SDS011;10137;49.406;19.484;2023-05-10T00:54:06;6.70;;;4.30;;
19951;SDS011;10137;49.406;19.484;2023-05-10T00:56:34;9.93;;;4.33;;
19951;SDS011;10137;49.406;19.484;2023-05-10T00:59:02;7.50;;;4.10;;
19951;SDS011;10137;49.406;19.484;2023-05-10T01:01:29;9.20;;;4.50;;
19951;SDS011;10137;49.406;19.484;2023-05-10T01:03:58;6.50;;;4.17;;
19951;SDS011;10137;49.406;19.484;2023-05-10T01:06:28;7.23;;;4.60;;
19951;SDS011;10137;49.406;19.484;2023-05-10T01:08:56;9.40;;;4.20;;
19951;SDS011;10137;49.406;19.484;2023-05-10T01:11:24;7.27;;;4.30;;
19951;SDS011;10137;49.406;19.484;2023-05-10T01:13:55;8.80;;;4.70;;
19951;SDS011;10137;49.406;19.484;2023-05-10T01:16:24;10.27;;;4.87;;
19951;SDS011;10137;49.406;19.484;2023-05-10T01:18:53;10.00;;;5.33;;
19951;SDS011;10137;49.406;19.484;2023-05-10T01:21:23;10.03;;;4.60;;
19951;SDS011;10137;49.406;19.484;2023-05-10T01:27:14;8.53;;;4.43;;
19951;SDS011;10137;49.406;19.484;2023-05-10T01:32:49;7.90;;;4.27;;
19951;SDS011;10137;49.406;19.484;2023-05-10T01:35:32;12.70;;;5.60;;
19951;SDS011;10137;49.406;19.484;2023-05-10T01:38:11;6.20;;;3.83;;
19951;SDS011;10137;49.406;19.484;2023-05-10T01:40:47;9.00;;;4.47;;
19951;SDS011;10137;49.406;19.484;2023-05-10T01:43:26;6.63;;;4.23;;
19951;SDS011;10137;49.406;19.484;2023-05-10T01:45:59;6.70;;;4.23;;
19951;SDS011;10137;49.406;19.484;2023-05-10T01:48:41;7.83;;;4.77;;
19951;SDS011;10137;49.406;19.484;2023-05-10T01:51:15;11.27;;;4.80;;
19951;SDS011;10137;49.406;19.484;2023-05-10T01:53:49;9.70;;;5.40;;
19951;SDS011;10137;49.406;19.484;2023-05-10T01:56:22;9.10;;;4.67;;
19951;SDS011;10137;49.406;19.484;2023-05-10T01:58:53;10.33;;;4.97;;
19951;SDS011;10137;49.406;19.484;2023-05-10T02:01:23;8.70;;;4.93;;
19951;SDS011;10137;49.406;19.484;2023-05-10T02:03:56;10.50;;;5.43;;
19951;SDS011;10137;49.406;19.484;2023-05-10T02:06:24;8.17;;;4.63;;
19951;SDS011;10137;49.406;19.484;2023-05-10T02:08:54;7.33;;;4.70;;
19951;SDS011;10137;49.406;19.484;2023-05-10T02:11:23;8.37;;;4.87;;
19951;SDS011;10137;49.406;19.484;2023-05-10T02:13:52;8.70;;;5.10;;
19951;SDS011;10137;49.406;19.484;2023-05-10T02:16:23;11.43;;;5.90;;
19951;SDS011;10137;49.406;19.484;2023-05-10T02:18:54;15.87;;;8.13;;
19951;SDS011;10137;49.406;19.484;2023-05-10T02:21:26;17.57;;;9.70;;
19951;SDS011;10137;49.406;19.484;2023-05-10T02:23:57;13.83;;;8.80;;
19951;SDS011;10137;49.406;19.484;2023-05-10T02:26:26;14.70;;;8.10;;
19951;SDS011;10137;49.406;19.484;2023-05-10T02:28:55;14.00;;;7.13;;
19951;SDS011;10137;49.406;19.484;2023-05-10T02:31:24;14.83;;;7.87;;
19951;SDS011;10137;49.406;19.484;2023-05-10T02:33:53;9.83;;;6.07;;
19951;SDS011;10137;49.406;19.484;2023-05-10T02:36:24;9.57;;;5.30;;
19951;SDS011;10137;49.406;19.484;2023-05-10T02:38:54;8.67;;;5.57;;
19951;SDS011;10137;49.406;19.484;2023-05-10T02:41:24;7.60;;;5.00;;
19951;SDS011;10137;49.406;19.484;2023-05-10T02:43:53;8.47;;;5.33;;
19951;SDS011;10137;49.406;19.484;2023-05-10T02:46:26;9.33;;;5.90;;
19951;SDS011;10137;49.406;19.484;2023-05-10T02:48:54;10.60;;;6.27;;
19951;SDS011;10137;49.406;19.484;2023-05-10T02:51:21;12.20;;;5.40;;
19951;SDS011;10137;49.406;19.484;2023-05-10T02:53:55;8.80;;;5.20;;
19951;SDS011;10137;49.406;19.484;2023-05-10T02:56:28;10.20;;;5.90;;
19951;SDS011;10137;49.406;19.484;2023-05-10T02:59:00;8.33;;;4.97;;
19951;SDS011;10137;49.406;19.484;2023-05-10T03:01:28;8.00;;;5.17;;
19951;SDS011;10137;49.406;19.484;2023-05-10T03:03:56;14.07;;;5.50;;
19951;SDS011;10137;49.406;19.484;2023-05-10T03:06:30;11.73;;;6.00;;
19951;SDS011;10137;49.406;19.484;2023-05-10T03:08:59;9.80;;;5.30;;
19951;SDS011;10137;49.406;19.484;2023-05-10T03:11:32;10.77;;;5.83;;
19951;SDS011;10137;49.406;19.484;2023-05-10T03:14:10;10.77;;;6.10;;
19951;SDS011;10137;49.406;19.484;2023-05-10T03:16:56;11.13;;;4.90;;
19951;SDS011;10137;49.406;19.484;2023-05-10T03:19:27;9.47;;;5.20;;
19951;SDS011;10137;49.406;19.484;2023-05-10T03:22:14;8.17;;;4.97;;
19951;SDS011;10137;49.406;19.484;2023-05-10T03:24:51;8.00;;;5.40;;
19951;SDS011;10137;49.406;19.484;2023-05-10T03:27:23;10.07;;;5.90;;
19951;SDS011;10137;49.406;19.484;2023-05-10T03:29:54;10.00;;;5.40;;
19951;SDS011;10137;49.406;19.484;2023-05-10T03:32:24;9.47;;;5.53;;
19951;SDS011;10137;49.406;19.484;2023-05-10T03:34:52;10.27;;;5.50;;
19951;SDS011;10137;49.406;19.484;2023-05-10T03:37:21;11.67;;;4.93;;
19951;SDS011;10137;49.406;19.484;2023-05-10T03:39:49;11.47;;;6.10;;
19951;SDS011;10137;49.406;19.484;2023-05-10T03:42:20;11.23;;;5.33;;
19951;SDS011;10137;49.406;19.484;2023-05-10T03:44:49;11.00;;;5.67;;
19951;SDS011;10137;49.406;19.484;2023-05-10T03:47:17;10.93;;;5.77;;
19951;SDS011;10137;49.406;19.484;2023-05-10T03:49:46;10.70;;;5.43;;
19951;SDS011;10137;49.406;19.484;2023-05-10T03:52:15;6.77;;;4.50;;
19951;SDS011;10137;49.406;19.484;2023-05-10T03:54:47;9.53;;;4.83;;
19951;SDS011;10137;49.406;19.484;2023-05-10T03:57:19;8.27;;;4.70;;
19951;SDS011;10137;49.406;19.484;2023-05-10T03:59:47;9.37;;;5.00;;
19951;SDS011;10137;49.406;19.484;2023-05-10T04:02:18;10.43;;;5.30;;
19951;SDS011;10137;49.406;19.484;2023-05-10T04:04:46;12.07;;;5.57;;
19951;SDS011;10137;49.406;19.484;2023-05-10T04:07:15;7.93;;;4.87;;
19951;SDS011;10137;49.406;19.484;2023-05-10T04:09:46;9.87;;;5.13;;
19951;SDS011;10137;49.406;19.484;2023-05-10T04:12:14;13.30;;;6.10;;
19951;SDS011;10137;49.406;19.484;2023-05-10T04:14:42;9.07;;;5.30;;
19951;SDS011;10137;49.406;19.484;2023-05-10T04:17:11;10.73;;;4.83;;
19951;SDS011;10137;49.406;19.484;2023-05-10T04:19:39;11.67;;;5.20;;
19951;SDS011;10137;49.406;19.484;2023-05-10T04:22:14;13.03;;;5.53;;
19951;SDS011;10137;49.406;19.484;2023-05-10T04:24:42;9.50;;;5.53;;
19951;SDS011;10137;49.406;19.484;2023-05-10T04:27:16;13.17;;;4.73;;
19951;SDS011;10137;49.406;19.484;2023-05-10T04:29:47;12.47;;;5.57;;
19951;SDS011;10137;49.406;19.484;2023-05-10T04:32:23;17.23;;;4.90;;
19951;SDS011;10137;49.406;19.484;2023-05-10T04:34:54;9.80;;;5.50;;
19951;SDS011;10137;49.406;19.484;2023-05-10T04:37:24;50.33;;;12.37;;
19951;SDS011;10137;49.406;19.484;2023-05-10T04:39:52;48.67;;;12.93;;
19951;SDS011;10137;49.406;19.484;2023-05-10T04:42:25;42.30;;;12.23;;
19951;SDS011;10137;49.406;19.484;2023-05-10T04:44:53;15.03;;;5.73;;
19951;SDS011;10137;49.406;19.484;2023-05-10T04:47:21;12.40;;;4.90;;
19951;SDS011;10137;49.406;19.484;2023-05-10T04:49:50;8.77;;;4.80;;
19951;SDS011;10137;49.406;19.484;2023-05-10T04:52:18;17.13;;;5.23;;
19951;SDS011;10137;49.406;19.484;2023-05-10T04:54:46;17.57;;;5.13;;
19951;SDS011;10137;49.406;19.484;2023-05-10T04:57:15;13.33;;;5.07;;
19951;SDS011;10137;49.406;19.484;2023-05-10T04:59:44;10.17;;;5.63;;
19951;SDS011;10137;49.406;19.484;2023-05-10T05:02:12;10.47;;;5.70;;
19951;SDS011;10137;49.406;19.484;2023-05-10T05:04:39;12.13;;;5.40;;
19951;SDS011;10137;49.406;19.484;2023-05-10T05:07:07;12.67;;;7.00;;
19951;SDS011;10137;49.406;19.484;2023-05-10T05:09:41;19.83;;;10.37;;
19951;SDS011;10137;49.406;19.484;2023-05-10T05:12:09;19.33;;;7.47;;
19951;SDS011;10137;49.406;19.484;2023-05-10T05:14:40;10.10;;;6.33;;
19951;SDS011;10137;49.406;19.484;2023-05-10T05:17:09;13.73;;;7.70;;
19951;SDS011;10137;49.406;19.484;2023-05-10T05:19:38;10.57;;;5.97;;
19951;SDS011;10137;49.406;19.484;2023-05-10T05:22:06;12.77;;;5.97;;
19951;SDS011;10137;49.406;19.484;2023-05-10T05:24:35;11.37;;;6.00;;
19951;SDS011;10137;49.406;19.484;2023-05-10T05:27:04;11.67;;;5.77;;
19951;SDS011;10137;49.406;19.484;2023-05-10T05:29:32;12.30;;;6.00;;
19951;SDS011;10137;49.406;19.484;2023-05-10T05:32:03;7.93;;;5.50;;
19951;SDS011;10137;49.406;19.484;2023-05-10T05:34:36;10.60;;;5.63;;
19951;SDS011;10137;49.406;19.484;2023-05-10T05:37:04;8.67;;;5.27;;
19951;SDS011;10137;49.406;19.484;2023-05-10T05:39:32;12.23;;;6.23;;
19951;SDS011;10137;49.406;19.484;2023-05-10T05:42:00;11.20;;;5.83;;
19951;SDS011;10137;49.406;19.484;2023-05-10T05:44:29;9.07;;;5.60;;
19951;SDS011;10137;49.406;19.484;2023-05-10T05:46:57;8.67;;;5.40;;
19951;SDS011;10137;49.406;19.484;2023-05-10T05:49:25;10.43;;;5.43;;
19951;SDS011;10137;49.406;19.484;2023-05-10T05:51:57;16.67;;;5.33;;
19951;SDS011;10137;49.406;19.484;2023-05-10T05:54:26;11.77;;;5.20;;
19951;SDS011;10137;49.406;19.484;2023-05-10T05:56:54;11.73;;;5.60;;
19951;SDS011;10137;49.406;19.484;2023-05-10T05:59:23;11.80;;;5.57;;
19951;SDS011;10137;49.406;19.484;2023-05-10T06:01:50;9.37;;;4.93;;
19951;SDS011;10137;49.406;19.484;2023-05-10T06:04:21;8.77;;;5.30;;
19951;SDS011;10137;49.406;19.484;2023-05-10T06:06:49;9.30;;;5.30;;
19951;SDS011;10137;49.406;19.484;2023-05-10T06:09:19;10.13;;;5.00;;
19951;SDS011;10137;49.406;19.484;2023-05-10T06:11:47;7.73;;;4.80;;
19951;SDS011;10137;49.406;19.484;2023-05-10T06:14:15;8.07;;;4.80;;
19951;SDS011;10137;49.406;19.484;2023-05-10T06:16:43;9.23;;;4.90;;
19951;SDS011;10137;49.406;19.484;2023-05-10T06:19:11;6.67;;;4.37;;
19951;SDS011;10137;49.406;19.484;2023-05-10T06:21:39;14.07;;;5.40;;
19951;SDS011;10137;49.406;19.484;2023-05-10T06:24:08;11.63;;;5.17;;
19951;SDS011;10137;49.406;19.484;2023-05-10T06:26:37;7.17;;;5.03;;
19951;SDS011;10137;49.406;19.484;2023-05-10T06:29:04;9.07;;;4.60;;
19951;SDS011;10137;49.406;19.484;2023-05-10T06:31:31;10.90;;;5.07;;
19951;SDS011;10137;49.406;19.484;2023-05-10T06:33:59;6.93;;;4.57;;
19951;SDS011;10137;49.406;19.484;2023-05-10T06:36:26;8.80;;;5.03;;
19951;SDS011;10137;49.406;19.484;2023-05-10T06:38:53;8.43;;;4.87;;
19951;SDS011;10137;49.406;19.484;2023-05-10T06:41:20;7.43;;;4.90;;
19951;SDS011;10137;49.406;19.484;2023-05-10T06:43:49;8.83;;;5.50;;
19951;SDS011;10137;49.406;19.484;2023-05-10T06:46:17;12.00;;;4.50;;
19951;SDS011;10137;49.406;19.484;2023-05-10T06:48:47;7.07;;;4.17;;
19951;SDS011;10137;49.406;19.484;2023-05-10T06:51:15;8.13;;;4.60;;
19951;SDS011;10137;49.406;19.484;2023-05-10T06:53:43;9.40;;;4.50;;
19951;SDS011;10137;49.406;19.484;2023-05-10T06:56:12;7.57;;;4.30;;
19951;SDS011;10137;49.406;19.484;2023-05-10T06:58:40;10.63;;;4.07;;
19951;SDS011;10137;49.406;19.484;2023-05-10T07:01:10;6.13;;;4.07;;
19951;SDS011;10137;49.406;19.484;2023-05-10T07:03:42;6.53;;;4.27;;
19951;SDS011;10137;49.406;19.484;2023-05-10T07:06:15;6.00;;;4.10;;
19951;SDS011;10137;49.406;19.484;2023-05-10T07:08:43;5.37;;;3.87;;
19951;SDS011;10137;49.406;19.484;2023-05-10T07:11:11;8.73;;;4.00;;
19951;SDS011;10137;49.406;19.484;2023-05-10T07:13:39;5.80;;;4.47;;
19951;SDS011;10137;49.406;19.484;2023-05-10T07:16:11;8.00;;;4.30;;
19951;SDS011;10137;49.406;19.484;2023-05-10T07:18:40;11.07;;;4.30;;
19951;SDS011;10137;49.406;19.484;2023-05-10T07:21:07;9.33;;;4.23;;
19951;SDS011;10137;49.406;19.484;2023-05-10T07:23:35;9.10;;;4.47;;
19951;SDS011;10137;49.406;19.484;2023-05-10T07:26:03;8.30;;;4.23;;
19951;SDS011;10137;49.406;19.484;2023-05-10T07:28:31;7.57;;;4.30;;
19951;SDS011;10137;49.406;19.484;2023-05-10T07:30:59;7.00;;;4.40;;
19951;SDS011;10137;49.406;19.484;2023-05-10T07:33:29;12.57;;;4.40;;
19951;SDS011;10137;49.406;19.484;2023-05-10T07:35:57;7.07;;;3.83;;
19951;SDS011;10137;49.406;19.484;2023-05-10T07:38:25;6.97;;;4.03;;
19951;SDS011;10137;49.406;19.484;2023-05-10T07:40:54;6.87;;;3.73;;
19951;SDS011;10137;49.406;19.484;2023-05-10T07:43:22;5.37;;;3.53;;
19951;SDS011;10137;49.406;19.484;2023-05-10T07:45:50;4.77;;;3.00;;
19951;SDS011;10137;49.406;19.484;2023-05-10T07:48:18;6.37;;;3.50;;
19951;SDS011;10137;49.406;19.484;2023-05-10T07:50:46;9.70;;;4.07;;
19951;SDS011;10137;49.406;19.484;2023-05-10T07:53:14;4.40;;;3.07;;
19951;SDS011;10137;49.406;19.484;2023-05-10T07:55:43;7.60;;;3.57;;
19951;SDS011;10137;49.406;19.484;2023-05-10T07:58:11;7.27;;;4.10;;
19951;SDS011;10137;49.406;19.484;2023-05-10T08:00:39;5.67;;;3.57;;
19951;SDS011;10137;49.406;19.484;2023-05-10T08:03:07;6.13;;;3.67;;
19951;SDS011;10137;49.406;19.484;2023-05-10T08:05:35;12.90;;;4.70;;
19951;SDS011;10137;49.406;19.484;2023-05-10T08:08:05;6.07;;;4.23;;
19951;SDS011;10137;49.406;19.484;2023-05-10T08:10:33;5.90;;;3.10;;
19951;SDS011;10137;49.406;19.484;2023-05-10T08:13:01;6.53;;;3.23;;
19951;SDS011;10137;49.406;19.484;2023-05-10T08:15:30;5.67;;;2.93;;
19951;SDS011;10137;49.406;19.484;2023-05-10T08:17:58;6.30;;;3.30;;
19951;SDS011;10137;49.406;19.484;2023-05-10T08:20:26;5.23;;;3.43;;
19951;SDS011;10137;49.406;19.484;2023-05-10T08:22:54;4.53;;;2.90;;
19951;SDS011;10137;49.406;19.484;2023-05-10T08:25:24;8.93;;;3.10;;
19951;SDS011;10137;49.406;19.484;2023-05-10T08:27:52;7.70;;;3.20;;
19951;SDS011;10137;49.406;19.484;2023-05-10T08:30:20;6.23;;;2.70;;
19951;SDS011;10137;49.406;19.484;2023-05-10T08:32:48;4.17;;;2.80;;
19951;SDS011;10137;49.406;19.484;2023-05-10T08:35:15;5.23;;;2.80;;
19951;SDS011;10137;49.406;19.484;2023-05-10T08:37:42;3.57;;;2.30;;
19951;SDS011;10137;49.406;19.484;2023-05-10T08:40:11;3.10;;;2.07;;
19951;SDS011;10137;49.406;19.484;2023-05-10T08:42:40;3.43;;;2.07;;
19951;SDS011;10137;49.406;19.484;2023-05-10T08:45:13;6.43;;;2.30;;
19951;SDS011;10137;49.406;19.484;2023-05-10T08:47:41;3.73;;;2.00;;
19951;SDS011;10137;49.406;19.484;2023-05-10T08:50:10;6.27;;;2.50;;
19951;SDS011;10137;49.406;19.484;2023-05-10T08:52:38;4.27;;;2.00;;
19951;SDS011;10137;49.406;19.484;2023-05-10T08:55:08;5.20;;;2.10;;
19951;SDS011;10137;49.406;19.484;2023-05-10T08:57:37;3.60;;;2.23;;
19951;SDS011;10137;49.406;19.484;2023-05-10T09:00:07;4.30;;;2.07;;
19951;SDS011;10137;49.406;19.484;2023-05-10T09:02:36;4.83;;;1.93;;
19951;SDS011;10137;49.406;19.484;2023-05-10T09:05:05;3.53;;;2.23;;
19951;SDS011;10137;49.406;19.484;2023-05-10T09:07:35;6.40;;;2.13;;
19951;SDS011;10137;49.406;19.484;2023-05-10T09:10:04;7.07;;;2.57;;
19951;SDS011;10137;49.406;19.484;2023-05-10T09:12:33;3.70;;;1.97;;
19951;SDS011;10137;49.406;19.484;2023-05-10T09:15:05;3.20;;;2.00;;
19951;SDS011;10137;49.406;19.484;2023-05-10T09:17:34;6.33;;;2.10;;
19951;SDS011;10137;49.406;19.484;2023-05-10T09:20:02;3.40;;;2.00;;
19951;SDS011;10137;49.406;19.484;2023-05-10T09:22:30;4.83;;;2.43;;
19951;SDS011;10137;49.406;19.484;2023-05-10T09:25:05;4.70;;;1.80;;
19951;SDS011;10137;49.406;19.484;2023-05-10T09:27:33;8.50;;;2.00;;
19951;SDS011;10137;49.406;19.484;2023-05-10T09:30:00;3.10;;;1.63;;
19951;SDS011;10137;49.406;19.484;2023-05-10T09:32:39;3.63;;;1.70;;
19951;SDS011;10137;49.406;19.484;2023-05-10T09:35:08;7.07;;;3.07;;
19951;SDS011;10137;49.406;19.484;2023-05-10T09:37:36;7.27;;;3.00;;
19951;SDS011;10137;49.406;19.484;2023-05-10T09:40:07;2.60;;;2.00;;
19951;SDS011;10137;49.406;19.484;2023-05-10T09:42:37;2.67;;;1.87;;
19951;SDS011;10137;49.406;19.484;2023-05-10T09:45:05;4.10;;;1.60;;
19951;SDS011;10137;49.406;19.484;2023-05-10T09:47:33;7.07;;;2.33;;
19951;SDS011;10137;49.406;19.484;2023-05-10T09:50:04;7.53;;;2.43;;
19951;SDS011;10137;49.406;19.484;2023-05-10T09:52:45;3.53;;;1.70;;
19951;SDS011;10137;49.406;19.484;2023-05-10T09:55:14;2.93;;;1.80;;
19951;SDS011;10137;49.406;19.484;2023-05-10T09:57:45;5.63;;;1.70;;
19951;SDS011;10137;49.406;19.484;2023-05-10T10:00:16;5.67;;;2.27;;
19951;SDS011;10137;49.406;19.484;2023-05-10T10:02:47;6.57;;;1.60;;
19951;SDS011;10137;49.406;19.484;2023-05-10T10:05:29;4.83;;;1.57;;
19951;SDS011;10137;49.406;19.484;2023-05-10T10:08:02;4.50;;;2.00;;
19951;SDS011;10137;49.406;19.484;2023-05-10T10:10:32;4.20;;;1.63;;
19951;SDS011;10137;49.406;19.484;2023-05-10T10:13:00;5.13;;;2.03;;
19951;SDS011;10137;49.406;19.484;2023-05-10T10:15:31;6.17;;;1.80;;
19951;SDS011;10137;49.406;19.484;2023-05-10T10:18:01;3.17;;;1.80;;
19951;SDS011;10137;49.406;19.484;2023-05-10T10:20:31;2.43;;;1.73;;
19951;SDS011;10137;49.406;19.484;2023-05-10T10:22:59;2.03;;;1.50;;
19951;SDS011;10137;49.406;19.484;2023-05-10T10:25:26;5.27;;;2.13;;
19951;SDS011;10137;49.406;19.484;2023-05-10T10:27:58;3.90;;;1.50;;
19951;SDS011;10137;49.406;19.484;2023-05-10T10:30:38;4.07;;;1.87;;
19951;SDS011;10137;49.406;19.484;2023-05-10T10:36:19;3.47;;;1.80;;
19951;SDS011;10137;49.406;19.484;2023-05-10T10:38:56;7.77;;;1.67;;
19951;SDS011;10137;49.406;19.484;2023-05-10T10:41:30;5.10;;;1.60;;
19951;SDS011;10137;49.406;19.484;2023-05-10T10:47:00;5.07;;;1.73;;
19951;SDS011;10137;49.406;19.484;2023-05-10T10:49:30;8.30;;;1.83;;
19951;SDS011;10137;49.406;19.484;2023-05-10T10:54:53;4.73;;;1.77;;
19951;SDS011;10137;49.406;19.484;2023-05-10T10:57:25;5.10;;;1.80;;
19951;SDS011;10137;49.406;19.484;2023-05-10T11:02:46;3.17;;;1.60;;
19951;SDS011;10137;49.406;19.484;2023-05-10T11:08:15;6.47;;;2.03;;
19951;SDS011;10137;49.406;19.484;2023-05-10T11:10:49;7.27;;;2.03;;
19951;SDS011;10137;49.406;19.484;2023-05-10T11:13:28;3.43;;;1.67;;
19951;SDS011;10137;49.406;19.484;2023-05-10T11:15:58;2.80;;;1.57;;
19951;SDS011;10137;49.406;19.484;2023-05-10T11:18:27;1.90;;;1.50;;
19951;SDS011;10137;49.406;19.484;2023-05-10T11:20:56;2.93;;;1.70;;
19951;SDS011;10137;49.406;19.484;2023-05-10T11:23:30;3.70;;;1.67;;
19951;SDS011;10137;49.406;19.484;2023-05-10T11:26:00;5.57;;;1.50;;
19951;SDS011;10137;49.406;19.484;2023-05-10T11:28:28;4.73;;;1.50;;
19951;SDS011;10137;49.406;19.484;2023-05-10T11:30:56;3.90;;;1.97;;
19951;SDS011;10137;49.406;19.484;2023-05-10T11:33:25;3.00;;;1.30;;
19951;SDS011;10137;49.406;19.484;2023-05-10T11:35:54;3.20;;;1.50;;
19951;SDS011;10137;49.406;19.484;2023-05-10T11:38:25;5.97;;;1.60;;
19951;SDS011;10137;49.406;19.484;2023-05-10T11:40:54;2.37;;;1.50;;
19951;SDS011;10137;49.406;19.484;2023-05-10T11:43:23;4.23;;;1.53;;
19951;SDS011;10137;49.406;19.484;2023-05-10T11:45:53;2.27;;;1.77;;
19951;SDS011;10137;49.406;19.484;2023-05-10T11:48:24;3.93;;;1.60;;
19951;SDS011;10137;49.406;19.484;2023-05-10T11:50:52;2.03;;;1.40;;
19951;SDS011;10137;49.406;19.484;2023-05-10T11:53:23;5.53;;;1.60;;
19951;SDS011;10137;49.406;19.484;2023-05-10T11:55:55;5.57;;;1.70;;
19951;SDS011;10137;49.406;19.484;2023-05-10T11:58:30;4.70;;;1.80;;
19951;SDS011;10137;49.406;19.484;2023-05-10T12:00:58;3.23;;;1.50;;
19951;SDS011;10137;49.406;19.484;2023-05-10T12:03:27;3.73;;;1.50;;
19951;SDS011;10137;49.406;19.484;2023-05-10T12:05:57;2.90;;;1.83;;
19951;SDS011;10137;49.406;19.484;2023-05-10T12:08:29;1.70;;;1.50;;
19951;SDS011;10137;49.406;19.484;2023-05-10T12:11:05;15.77;;;2.23;;
19951;SDS011;10137;49.406;19.484;2023-05-10T12:13:37;9.60;;;1.90;;
19951;SDS011;10137;49.406;19.484;2023-05-10T12:16:16;3.07;;;1.73;;
19951;SDS011;10137;49.406;19.484;2023-05-10T12:18:45;2.33;;;1.60;;
19951;SDS011;10137;49.406;19.484;2023-05-10T12:21:18;2.93;;;1.50;;
19951;SDS011;10137;49.406;19.484;2023-05-10T12:23:48;3.43;;;1.63;;
19951;SDS011;10137;49.406;19.484;2023-05-10T12:26:22;4.43;;;1.90;;
19951;SDS011;10137;49.406;19.484;2023-05-10T12:28:52;5.40;;;2.13;;
19951;SDS011;10137;49.406;19.484;2023-05-10T12:31:21;4.93;;;1.40;;
19951;SDS011;10137;49.406;19.484;2023-05-10T12:33:49;1.70;;;1.10;;
19951;SDS011;10137;49.406;19.484;2023-05-10T12:36:22;2.50;;;1.53;;
19951;SDS011;10137;49.406;19.484;2023-05-10T12:38:59;5.63;;;1.67;;
19951;SDS011;10137;49.406;19.484;2023-05-10T12:41:32;5.00;;;1.90;;
19951;SDS011;10137;49.406;19.484;2023-05-10T12:44:02;4.97;;;1.47;;
19951;SDS011;10137;49.406;19.484;2023-05-10T12:46:30;3.80;;;2.07;;
19951;SDS011;10137;49.406;19.484;2023-05-10T12:48:59;12.37;;;2.00;;
19951;SDS011;10137;49.406;19.484;2023-05-10T12:51:27;4.67;;;1.43;;
19951;SDS011;10137;49.406;19.484;2023-05-10T12:53:56;3.07;;;1.63;;
19951;SDS011;10137;49.406;19.484;2023-05-10T12:56:24;5.90;;;1.53;;
19951;SDS011;10137;49.406;19.484;2023-05-10T12:58:57;4.27;;;1.87;;
19951;SDS011;10137;49.406;19.484;2023-05-10T13:01:28;2.33;;;1.70;;
19951;SDS011;10137;49.406;19.484;2023-05-10T13:03:57;3.20;;;1.57;;
19951;SDS011;10137;49.406;19.484;2023-05-10T13:06:26;6.90;;;1.73;;
19951;SDS011;10137;49.406;19.484;2023-05-10T13:08:54;2.53;;;1.43;;
19951;SDS011;10137;49.406;19.484;2023-05-10T13:11:23;2.90;;;1.50;;
19951;SDS011;10137;49.406;19.484;2023-05-10T13:13:51;1.50;;;1.40;;
19951;SDS011;10137;49.406;19.484;2023-05-10T13:16:21;2.50;;;1.50;;
19951;SDS011;10137;49.406;19.484;2023-05-10T13:18:52;4.80;;;1.70;;
19951;SDS011;10137;49.406;19.484;2023-05-10T13:21:21;2.87;;;1.70;;
19951;SDS011;10137;49.406;19.484;2023-05-10T13:23:50;5.23;;;1.83;;
19951;SDS011;10137;49.406;19.484;2023-05-10T13:26:19;4.03;;;1.63;;
19951;SDS011;10137;49.406;19.484;2023-05-10T13:28:47;5.93;;;1.83;;
19951;SDS011;10137;49.406;19.484;2023-05-10T13:31:17;7.27;;;2.10;;
19951;SDS011;10137;49.406;19.484;2023-05-10T13:33:50;5.53;;;2.10;;
19951;SDS011;10137;49.406;19.484;2023-05-10T13:36:17;17.00;;;2.83;;
19951;SDS011;10137;49.406;19.484;2023-05-10T13:38:44;6.47;;;2.17;;
19951;SDS011;10137;49.406;19.484;2023-05-10T13:41:11;3.80;;;2.47;;
19951;SDS011;10137;49.406;19.484;2023-05-10T13:43:38;5.00;;;2.73;;
19951;SDS011;10137;49.406;19.484;2023-05-10T13:46:05;4.47;;;2.40;;
19951;SDS011;10137;49.406;19.484;2023-05-10T13:48:32;6.13;;;2.67;;
19951;SDS011;10137;49.406;19.484;2023-05-10T13:51:01;6.43;;;2.50;;
19951;SDS011;10137;49.406;19.484;2023-05-10T13:53:28;8.03;;;3.10;;
19951;SDS011;10137;49.406;19.484;2023-05-10T13:55:55;10.97;;;3.00;;
19951;SDS011;10137;49.406;19.484;2023-05-10T13:58:23;6.80;;;2.87;;
19951;SDS011;10137;49.406;19.484;2023-05-10T14:00:50;5.27;;;2.20;;
19951;SDS011;10137;49.406;19.484;2023-05-10T14:03:17;5.37;;;2.33;;
19951;SDS011;10137;49.406;19.484;2023-05-10T14:05:58;6.47;;;3.60;;
19951;SDS011;10137;49.406;19.484;2023-05-10T14:08:35;4.70;;;3.23;;
19951;SDS011;10137;49.406;19.484;2023-05-10T14:11:06;8.13;;;2.83;;
19951;SDS011;10137;49.406;19.484;2023-05-10T14:13:33;6.73;;;2.70;;
19951;SDS011;10137;49.406;19.484;2023-05-10T14:16:00;10.63;;;3.63;;
19951;SDS011;10137;49.406;19.484;2023-05-10T14:18:27;6.37;;;3.20;;
19951;SDS011;10137;49.406;19.484;2023-05-10T14:20:55;10.47;;;2.90;;
19951;SDS011;10137;49.406;19.484;2023-05-10T14:23:23;10.80;;;4.70;;
19951;SDS011;10137;49.406;19.484;2023-05-10T14:25:51;14.37;;;6.40;;
19951;SDS011;10137;49.406;19.484;2023-05-10T14:28:18;11.20;;;2.40;;
19951;SDS011;10137;49.406;19.484;2023-05-10T14:30:46;4.00;;;2.80;;
19951;SDS011;10137;49.406;19.484;2023-05-10T14:33:13;8.73;;;2.93;;
19951;SDS011;10137;49.406;19.484;2023-05-10T14:35:41;2.80;;;2.20;;
19951;SDS011;10137;49.406;19.484;2023-05-10T14:38:08;5.43;;;1.87;;
19951;SDS011;10137;49.406;19.484;2023-05-10T14:40:37;3.53;;;1.90;;
19951;SDS011;10137;49.406;19.484;2023-05-10T14:45:40;8.23;;;4.80;;
19951;SDS011;10137;49.406;19.484;2023-05-10T14:48:13;7.60;;;2.70;;
19951;SDS011;10137;49.406;19.484;2023-05-10T14:50:43;4.40;;;2.80;;
19951;SDS011;10137;49.406;19.484;2023-05-10T14:53:11;6.37;;;2.23;;
19951;SDS011;10137;49.406;19.484;2023-05-10T14:55:43;4.00;;;1.80;;
19951;SDS011;10137;49.406;19.484;2023-05-10T14:58:11;7.97;;;2.40;;
19951;SDS011;10137;49.406;19.484;2023-05-10T15:00:40;3.80;;;1.80;;
19951;SDS011;10137;49.406;19.484;2023-05-10T15:03:08;5.03;;;2.07;;
19951;SDS011;10137;49.406;19.484;2023-05-10T15:05:37;3.33;;;1.90;;
19951;SDS011;10137;49.406;19.484;2023-05-10T15:08:05;4.27;;;2.70;;
19951;SDS011;10137;49.406;19.484;2023-05-10T15:10:35;6.67;;;2.73;;